Time;durP1;ratioP1;P1;durP2;ratioP2;P2;SDS_P1;SDS_P2;PMS_P1;PMS_P2;Temp;Humidity;BMP_temperature;BMP_pressure;BME280_temperature;BME280_humidity;BME280_pressure;Samples;Min_cycle;Max_cycle;Signal;HPM_P1;HPM_P2
2022/04/18 00:02:40;;;;;;;1.13;0.38;;;;;;;19.86;29.98;101862.84;16144534;19;129487;-65
2022/04/18 00:08:03;;;;;;;2.25;0.47;;;;;;;19.84;30.46;101856.69;16142272;19;129632;-63
2022/04/18 00:13:25;;;;;;;0.95;0.30;;;;;;;19.83;30.47;101861.41;16141281;19;130519;-64
2022/04/18 00:18:46;;;;;;;1.90;0.30;;;;;;;19.82;30.20;101862.47;16146815;19;129319;-65
2022/04/18 00:24:13;;;;;;;0.77;0.38;;;;;;;19.80;30.45;101867.41;16143691;19;129457;-65
2022/04/18 00:29:36;;;;;;;0.45;0.20;;;;;;;19.79;30.34;101859.31;16140100;19;129458;-64
2022/04/18 00:34:57;;;;;;;1.38;0.30;;;;;;;19.78;30.07;101857.63;16143612;19;129298;-65
2022/04/18 00:40:19;;;;;;;0.85;0.30;;;;;;;19.75;30.12;101858.94;16143650;19;129334;-64
2022/04/18 00:45:41;;;;;;;1.58;0.30;;;;;;;19.75;30.22;101852.53;16141588;19;129268;-65
2022/04/18 00:51:14;;;;;;;0.50;0.13;;;;;;;19.74;30.57;101851.69;16138126;19;130366;-64
2022/04/18 00:56:36;;;;;;;0.80;0.30;;;;;;;19.73;30.35;101849.13;16141730;19;130376;-64
2022/04/18 01:01:58;;;;;;;2.40;0.30;;;;;;;19.72;30.62;101850.19;16140188;19;130140;-64
2022/04/18 01:07:21;;;;;;;0.70;0.28;;;;;;;19.68;30.35;101845.13;16140681;19;131239;-64
2022/04/18 01:12:43;;;;;;;0.32;0.20;;;;;;;19.66;30.22;101844.50;16139529;19;131495;-64
2022/04/18 01:18:05;;;;;;;0.60;0.20;;;;;;;19.66;30.47;101843.66;16140161;19;128789;-65
2022/04/18 01:23:26;;;;;;;0.10;0.10;;;;;;;19.64;30.14;101843.03;16140692;19;130541;-64
2022/04/18 01:29:05;;;;;;;2.75;0.38;;;;;;;19.63;30.55;101833.88;16134400;19;129596;-64
2022/04/18 01:34:27;;;;;;;1.15;0.20;;;;;;;19.61;30.52;101844.34;16138336;19;129017;-64
2022/04/18 01:39:49;;;;;;;0.35;0.25;;;;;;;19.59;30.30;101840.94;16138642;19;130801;-65
2022/04/18 01:45:11;;;;;;;1.58;0.40;;;;;;;19.58;30.66;101842.03;16139199;19;129535;-64
2022/04/18 01:50:33;;;;;;;0.63;0.10;;;;;;;19.57;30.37;101837.53;16134563;19;130608;-64
2022/04/18 01:55:55;;;;;;;0.50;0.20;;;;;;;19.55;30.60;101836.97;16140101;19;129949;-64
2022/04/18 02:01:17;;;;;;;0.57;0.25;;;;;;;19.55;30.45;101844.41;16138346;19;128950;-65
2022/04/18 02:06:39;;;;;;;0.20;0.10;;;;;;;19.53;30.41;101833.56;16137962;19;129304;-64
2022/04/18 02:12:01;;;;;;;0.40;0.20;;;;;;;19.52;30.23;101840.19;16135912;19;129465;-65
2022/04/18 02:17:23;;;;;;;0.70;0.20;;;;;;;19.51;30.70;101841.25;16132770;19;131274;-63
2022/04/18 02:22:45;;;;;;;0.63;0.30;;;;;;;19.49;30.22;101832.31;16136817;19;129939;-65
2022/04/18 02:28:07;;;;;;;0.20;0.20;;;;;;;19.48;30.26;101825.06;16129798;19;130051;-64
2022/04/18 02:33:29;;;;;;;0.47;0.10;;;;;;;19.46;30.57;101828.09;16134381;19;130328;-65
2022/04/18 02:38:50;;;;;;;0.30;0.20;;;;;;;19.46;30.28;101827.22;16134281;19;129716;-65
2022/04/18 02:44:12;;;;;;;0.20;0.10;;;;;;;19.44;30.38;101819.13;16134762;19;129569;-64
2022/04/18 02:49:36;;;;;;;0.10;0.10;;;;;;;19.43;30.74;101822.16;16131918;19;129849;-64
2022/04/18 02:54:59;;;;;;;0.30;0.10;;;;;;;19.42;30.38;101814.91;16135118;19;129590;-65
2022/04/18 03:00:20;;;;;;;0.80;0.10;;;;;;;19.41;30.38;101805.72;16130093;19;130160;-65
2022/04/18 03:05:43;;;;;;;0.90;0.28;;;;;;;19.40;30.57;101811.50;16130142;19;129869;-64
2022/04/18 03:11:05;;;;;;;1.23;0.22;;;;;;;19.38;30.48;101809.81;16132843;19;131007;-64
2022/04/18 03:16:27;;;;;;;0.10;0.10;;;;;;;19.36;30.39;101800.84;16144429;19;129286;-64
2022/04/18 03:21:49;;;;;;;0.60;0.20;;;;;;;19.35;30.47;101804.69;16146632;19;129698;-65
2022/04/18 03:27:11;;;;;;;0.50;0.30;;;;;;;19.33;30.43;101801.31;16143427;19;129445;-65
2022/04/18 03:32:32;;;;;;;0.40;0.10;;;;;;;19.33;30.19;101795.75;16144781;19;130016;-64
2022/04/18 03:43:35;;;;;;;0.10;0.10;;;;;;;19.30;30.52;101799.00;16143962;19;129371;-64
2022/04/18 03:48:57;;;;;;;0.30;0.20;;;;;;;19.29;30.63;101788.13;16143509;19;129330;-64
2022/04/18 03:54:18;;;;;;;0.60;0.20;;;;;;;19.29;30.45;101802.88;16145448;19;128970;-65
2022/04/18 03:59:41;;;;;;;0.20;0.20;;;;;;;19.27;30.33;101795.81;16141063;19;130888;-64
2022/04/18 04:05:03;;;;;;;0.85;0.20;;;;;;;19.26;30.63;101800.53;16142092;19;130344;-64
2022/04/18 04:10:25;;;;;;;0.40;0.20;;;;;;;19.24;30.18;101797.13;16139723;19;131024;-64
2022/04/18 04:15:46;;;;;;;0.40;0.20;;;;;;;19.25;30.52;101789.69;16139548;19;129106;-64
2022/04/18 04:21:08;;;;;;;0.50;0.20;;;;;;;19.23;30.26;101789.91;16140260;19;129377;-64
2022/04/18 04:26:30;;;;;;;0.98;0.20;;;;;;;19.20;30.37;101790.34;16143168;19;129501;-64
2022/04/18 04:31:52;;;;;;;1.50;0.20;;;;;;;19.19;30.14;101785.88;16138353;19;129906;-64
2022/04/18 04:37:13;;;;;;;0.60;0.30;;;;;;;19.18;30.32;101784.16;16142421;19;129493;-63
2022/04/18 04:42:35;;;;;;;0.60;0.17;;;;;;;19.18;30.61;101781.41;16142427;19;130945;-63
2022/04/18 04:47:57;;;;;;;0.17;0.10;;;;;;;19.16;30.44;101795.47;16140448;19;129151;-64
2022/04/18 04:53:19;;;;;;;0.40;0.22;;;;;;;19.17;30.57;101790.78;16140232;19;129469;-64
2022/04/18 04:58:40;;;;;;;0.35;0.28;;;;;;;19.16;30.58;101789.09;16137514;19;129584;-64
2022/04/18 05:04:02;;;;;;;0.20;0.20;;;;;;;19.14;30.12;101791.25;16132759;19;130835;-64
2022/04/18 05:09:24;;;;;;;0.30;0.20;;;;;;;19.13;30.54;101795.09;16136453;19;129406;-64
2022/04/18 05:14:46;;;;;;;0.25;0.10;;;;;;;19.13;30.23;101803.41;16133365;19;129515;-64
2022/04/18 05:20:09;;;;;;;0.20;0.20;;;;;;;19.11;30.45;101811.09;16137593;19;129525;-64
2022/04/18 05:25:31;;;;;;;0.35;0.20;;;;;;;19.12;30.27;101812.81;16135910;19;130250;-64
2022/04/18 05:30:52;;;;;;;0.10;0.10;;;;;;;19.12;30.31;101810.91;16135327;19;129500;-64
2022/04/18 05:36:14;;;;;;;0.57;0.20;;;;;;;19.12;30.24;101801.72;16137851;19;129043;-64
2022/04/18 05:41:36;;;;;;;0.68;0.20;;;;;;;19.13;30.50;101811.72;16133441;19;129582;-64
2022/04/18 05:46:57;;;;;;;0.38;0.28;;;;;;;19.13;30.21;101797.88;16135395;19;129406;-64
2022/04/18 05:52:19;;;;;;;0.13;0.10;;;;;;;19.12;30.35;101808.13;16131693;19;129625;-64
2022/04/18 05:57:41;;;;;;;0.40;0.28;;;;;;;19.13;30.26;101812.59;16135075;19;130054;-64
2022/04/18 06:03:03;;;;;;;0.28;0.20;;;;;;;19.14;30.55;101810.66;16138170;19;129756;-64
2022/04/18 06:08:25;;;;;;;0.80;0.20;;;;;;;19.14;30.34;101813.44;16137394;19;129775;-64
2022/04/18 06:13:47;;;;;;;1.08;0.20;;;;;;;19.13;30.44;101815.38;16130241;19;129357;-64
2022/04/18 06:19:08;;;;;;;1.17;0.20;;;;;;;19.14;30.61;101816.22;16129089;19;130571;-64
2022/04/18 06:24:30;;;;;;;0.20;0.10;;;;;;;19.13;30.28;101812.59;16136818;19;129841;-64
2022/04/18 06:29:52;;;;;;;0.20;0.20;;;;;;;19.13;30.45;101815.38;16133153;19;129468;-64
2022/04/18 06:35:13;;;;;;;0.95;0.30;;;;;;;19.13;30.73;101817.28;16134431;19;130040;-64
2022/04/18 06:40:35;;;;;;;1.98;0.35;;;;;;;19.13;30.43;101814.50;16133760;19;129555;-64
2022/04/18 06:45:57;;;;;;;0.20;0.20;;;;;;;19.12;30.72;101812.81;16131935;19;129780;-64
2022/04/18 06:51:19;;;;;;;0.47;0.20;;;;;;;19.11;30.79;101820.28;16129775;19;129061;-64
2022/04/18 06:56:59;;;;;;;0.40;0.20;;;;;;;19.11;30.65;101820.28;16131327;19;130693;-64
2022/04/18 07:02:20;;;;;;;2.65;0.30;;;;;;;19.15;30.80;101831.78;16130300;19;128935;-64
2022/04/18 07:07:43;;;;;;;5.20;0.90;;;;;;;19.17;29.09;101818.53;16131312;19;131374;-65
2022/04/18 07:13:05;;;;;;;5.43;1.60;;;;;;;19.09;28.62;101819.66;16124248;19;130305;-65
2022/04/18 07:18:27;;;;;;;4.05;1.55;;;;;;;19.05;27.22;101816.50;16126296;19;129880;-65
2022/04/18 07:23:48;;;;;;;3.55;1.20;;;;;;;19.03;26.83;101810.34;16129266;19;130225;-64
2022/04/18 07:29:10;;;;;;;4.40;1.38;;;;;;;19.06;26.72;101811.78;16129298;19;129728;-64
2022/04/18 07:34:33;;;;;;;4.32;1.30;;;;;;;19.14;26.67;101805.13;16130462;19;129621;-65
2022/04/18 07:39:55;;;;;;;3.33;1.08;;;;;;;19.21;27.26;101804.00;16126622;19;129912;-65
2022/04/18 07:45:17;;;;;;;3.67;1.15;;;;;;;19.29;27.28;101808.41;16128637;19;129429;-65
2022/04/18 07:56:20;;;;;;;1.75;1.00;;;;;;;19.36;26.85;101800.03;16130177;19;130754;-65
2022/04/18 08:01:43;;;;;;;4.18;1.25;;;;;;;19.36;26.57;101800.84;16144652;19;129849;-65
2022/04/18 08:07:05;;;;;;;5.50;0.98;;;;;;;19.35;26.92;101793.59;16143763;19;129945;-65
2022/04/18 08:12:27;;;;;;;2.60;1.23;;;;;;;19.38;26.66;101798.69;16139548;19;130311;-65
2022/04/18 08:17:48;;;;;;;7.38;1.13;;;;;;;19.38;26.20;101798.69;16136179;19;130791;-65
2022/04/18 08:23:10;;;;;;;4.05;1.02;;;;;;;19.41;26.60;101804.88;16137235;19;132626;-64
2022/04/18 08:28:32;;;;;;;2.05;0.93;;;;;;;19.44;26.09;101801.66;16138766;19;129501;-65
2022/04/18 08:33:54;;;;;;;6.63;1.10;;;;;;;19.47;26.55;101801.16;16139415;19;130469;-64
2022/04/18 08:39:16;;;;;;;1.60;1.02;;;;;;;19.49;25.77;101801.78;16138050;19;129819;-64
2022/04/18 08:44:37;;;;;;;1.45;1.00;;;;;;;19.57;26.15;101801.47;16132288;19;130647;-64
2022/04/18 08:55:41;;;;;;;3.03;1.27;;;;;;;19.66;25.73;101808.44;16134050;19;131304;-64
2022/04/18 09:01:04;;;;;;;8.35;1.23;;;;;;;19.68;25.05;101803.50;16134812;19;130749;-64
2022/04/18 09:06:29;;;;;;;1.73;0.83;;;;;;;19.72;24.58;101792.78;16135946;19;130288;-64
2022/04/18 09:11:51;;;;;;;2.45;1.10;;;;;;;19.74;24.60;101793.38;16130393;19;129996;-64
2022/04/18 09:17:32;;;;;;;5.72;1.20;;;;;;;19.78;24.91;101793.75;16136360;19;129050;-64
2022/04/18 09:22:53;;;;;;;5.10;1.08;;;;;;;19.78;25.03;101783.50;16136683;19;130058;-64
2022/04/18 09:28:15;;;;;;;5.72;0.90;;;;;;;19.79;24.97;101779.63;16135021;19;129487;-64
2022/04/18 09:33:37;;;;;;;8.70;1.17;;;;;;;19.81;24.72;101779.41;16127927;19;130664;-64
2022/04/18 09:38:59;;;;;;;3.35;1.60;;;;;;;19.82;24.46;101775.53;16133419;19;129651;-62
2022/04/18 09:44:26;;;;;;;3.90;1.00;;;;;;;19.84;24.36;101773.38;16136436;19;129898;-62
2022/04/18 09:49:49;;;;;;;3.38;1.15;;;;;;;19.83;25.12;101777.22;16134858;19;131860;-61
2022/04/18 09:55:11;;;;;;;4.07;1.02;;;;;;;19.80;24.90;101772.16;16135899;19;129319;-62
2022/04/18 10:00:33;;;;;;;8.27;0.90;;;;;;;19.78;24.12;101769.59;16129540;19;129661;-62
2022/04/18 10:05:55;;;;;;;4.35;1.00;;;;;;;19.80;24.41;101761.06;16131578;19;130078;-63
2022/04/18 10:11:19;;;;;;;3.30;0.75;;;;;;;19.80;24.41;101755.50;16130582;19;129894;-62
2022/04/18 10:16:41;;;;;;;2.65;1.10;;;;;;;19.82;24.37;101750.53;16129734;19;129638;-63
2022/04/18 10:22:24;;;;;;;7.43;1.35;;;;;;;19.83;24.60;101752.25;16127409;19;129415;-64
2022/04/18 10:27:59;;;;;;;5.57;1.30;;;;;;;19.84;24.74;101745.59;16133480;19;129434;-63
2022/04/18 10:33:22;;;;;;;3.80;1.40;;;;;;;19.86;25.18;101740.69;16124880;19;129940;-61
2022/04/18 10:38:45;;;;;;;3.10;1.20;;;;;;;19.89;24.91;101736.56;16127031;19;129279;-61
2022/04/18 10:44:09;;;;;;;3.67;1.02;;;;;;;19.88;24.72;101724.63;16130567;19;129597;-61
2022/04/18 10:49:35;;;;;;;5.65;1.00;;;;;;;19.89;24.94;101726.31;16129343;19;129976;-61
2022/04/18 10:54:59;;;;;;;3.63;1.23;;;;;;;19.90;24.83;101719.69;16131050;19;130421;-61
2022/04/18 11:00:21;;;;;;;5.73;1.27;;;;;;;19.88;25.12;101713.53;16131746;19;129117;-62
2022/04/18 11:05:43;;;;;;;4.60;0.90;;;;;;;19.90;24.64;101703.03;16131591;19;129719;-61
2022/04/18 11:11:07;;;;;;;1.30;0.75;;;;;;;19.90;24.96;101702.16;16126848;19;130519;-62
2022/04/18 11:16:35;;;;;;;4.45;0.90;;;;;;;19.89;24.28;101708.81;16128601;19;129994;-61
2022/04/18 11:22:00;;;;;;;3.80;0.70;;;;;;;19.87;24.45;101700.72;16129699;19;129618;-61
2022/04/18 11:27:30;;;;;;;2.97;1.00;;;;;;;19.84;24.16;101696.50;16128468;19;129942;-62
2022/04/18 11:32:51;;;;;;;2.58;1.05;;;;;;;19.85;23.72;101689.00;16131914;19;129042;-62
2022/04/18 11:38:13;;;;;;;1.90;0.88;;;;;;;19.87;24.12;101689.63;16147556;19;129829;-61
2022/04/18 11:43:35;;;;;;;1.33;0.90;;;;;;;19.87;23.83;101695.16;16141246;19;129440;-62
2022/04/18 11:48:57;;;;;;;2.10;0.80;;;;;;;19.88;23.54;101679.38;16144996;19;129424;-62
2022/04/18 11:54:18;;;;;;;2.33;1.00;;;;;;;19.88;23.71;101684.91;16137800;19;129149;-61
2022/04/18 11:59:40;;;;;;;5.90;1.27;;;;;;;19.88;23.83;101677.44;16143803;19;129623;-62
2022/04/18 12:11:00;;;;;;;2.13;1.10;;;;;;;19.88;23.97;101673.81;16127900;19;130245;-61
2022/04/18 12:16:22;;;;;;;2.72;1.08;;;;;;;19.88;23.76;101669.09;16128892;19;129887;-61
2022/04/18 12:21:51;;;;;;;1.60;0.90;;;;;;;19.88;23.32;101663.53;16129563;19;130592;-61
2022/04/18 12:27:16;;;;;;;2.00;1.00;;;;;;;19.88;23.27;101651.59;16130761;19;129489;-61
2022/04/18 12:32:38;;;;;;;2.83;1.00;;;;;;;19.87;23.67;101639.63;16125619;19;129601;-62
2022/04/18 12:38:02;;;;;;;1.73;0.90;;;;;;;19.88;23.68;101627.44;16131263;19;129599;-62
2022/04/18 12:43:29;;;;;;;2.38;1.20;;;;;;;19.89;23.69;101619.94;16134742;19;129663;-62
2022/04/18 12:48:51;;;;;;;1.63;0.90;;;;;;;19.89;23.71;101619.94;16138074;19;129096;-62
2022/04/18 12:54:24;;;;;;;1.25;0.80;;;;;;;19.92;23.52;101611.16;16136106;19;129319;-61
2022/04/18 12:59:46;;;;;;;1.65;0.93;;;;;;;19.91;23.83;101613.09;16140485;19;129350;-62
2022/04/18 13:05:09;;;;;;;2.47;0.98;;;;;;;19.92;23.54;101609.22;16142529;19;129777;-62
2022/04/18 13:10:33;;;;;;;1.15;0.77;;;;;;;19.93;23.25;101610.06;16138595;19;130384;-61
2022/04/18 13:15:55;;;;;;;4.68;1.35;;;;;;;19.92;23.08;101603.69;16139752;19;129371;-62
2022/04/18 13:21:17;;;;;;;2.65;0.95;;;;;;;19.91;22.92;101599.22;16139070;19;129386;-61
2022/04/18 13:26:38;;;;;;;2.75;0.90;;;;;;;19.90;23.11;101594.72;16133942;19;133338;-62
2022/04/18 13:32:00;;;;;;;1.48;0.82;;;;;;;19.88;23.01;101580.25;16136830;19;129259;-61
2022/04/18 13:37:22;;;;;;;3.33;0.80;;;;;;;19.90;23.45;101577.22;16137322;19;130126;-61
2022/04/18 13:42:46;;;;;;;2.28;0.80;;;;;;;19.90;23.53;101566.09;16138241;19;130362;-61
2022/04/18 13:48:08;;;;;;;5.50;0.85;;;;;;;19.90;23.02;101560.53;16138732;19;130304;-62
2022/04/18 13:53:33;;;;;;;2.37;1.03;;;;;;;19.89;23.12;101554.16;16133810;19;129841;-61
2022/04/18 13:58:55;;;;;;;4.00;1.00;;;;;;;19.89;23.38;101554.16;16137188;19;129332;-61
2022/04/18 14:04:17;;;;;;;1.90;1.00;;;;;;;19.88;23.07;101546.91;16134940;19;129141;-61
2022/04/18 14:09:38;;;;;;;4.10;1.02;;;;;;;19.89;22.99;101550.53;16136787;19;129484;-60
2022/04/18 14:21:01;;;;;;;0.88;0.85;;;;;;;19.87;23.53;101533.28;16135838;19;129804;-61
2022/04/18 14:26:25;;;;;;;2.10;0.90;;;;;;;19.86;23.16;101526.88;16135119;19;129587;-61
2022/04/18 14:31:47;;;;;;;10.87;1.10;;;;;;;19.86;23.50;101521.31;16132642;19;129659;-61
2022/04/18 14:37:09;;;;;;;14.20;1.42;;;;;;;19.86;23.46;101515.75;16133836;19;129408;-61
2022/04/18 14:42:31;;;;;;;12.55;1.25;;;;;;;19.86;23.17;101521.31;16132802;19;129421;-61
2022/04/18 14:47:53;;;;;;;5.38;1.10;;;;;;;19.85;23.26;101502.97;16128608;19;129572;-61
2022/04/18 14:53:15;;;;;;;5.55;1.30;;;;;;;19.84;23.34;101502.13;16131208;19;130512;-61
2022/04/18 14:58:36;;;;;;;3.85;1.20;;;;;;;19.86;23.34;101492.72;16135520;19;129844;-61
2022/04/18 15:03:58;;;;;;;6.05;0.90;;;;;;;19.85;23.42;101486.31;16132851;19;129739;-61
2022/04/18 15:09:20;;;;;;;1.50;0.90;;;;;;;19.85;23.47;101486.31;16141367;19;131078;-60
2022/04/18 15:14:42;;;;;;;7.60;1.08;;;;;;;19.86;23.67;101481.59;16137399;19;129334;-61
2022/04/18 15:20:04;;;;;;;3.10;1.00;;;;;;;19.86;23.25;101473.28;16140082;19;129849;-61
2022/04/18 15:25:26;;;;;;;2.05;0.90;;;;;;;19.84;23.58;101471.59;16142102;19;130163;-61
2022/04/18 15:36:31;;;;;;;2.78;0.75;;;;;;;19.85;23.61;101464.09;16146237;19;129474;-61
2022/04/18 15:41:53;;;;;;;7.00;0.93;;;;;;;19.83;23.55;101460.69;16143146;19;130394;-59
2022/04/18 15:47:15;;;;;;;5.70;0.70;;;;;;;19.84;23.58;101459.63;16144083;19;130866;-60
2022/04/18 15:52:36;;;;;;;2.83;1.00;;;;;;;19.84;23.62;101456.84;16142094;19;130548;-60
2022/04/18 15:57:58;;;;;;;3.50;1.17;;;;;;;19.84;23.76;101456.84;16145757;19;129716;-60
2022/04/18 16:03:20;;;;;;;2.97;1.00;;;;;;;19.83;24.46;101450.47;16140861;19;129929;-59
2022/04/18 16:08:42;;;;;;;3.90;0.95;;;;;;;19.82;24.21;101456.22;16143146;19;130163;-59
2022/04/18 16:14:03;;;;;;;4.88;1.02;;;;;;;19.82;24.66;101447.91;16136053;19;129038;-59
2022/04/18 16:19:25;;;;;;;10.98;2.80;;;;;;;19.81;24.68;101440.69;16135746;19;130272;-59
2022/04/18 16:24:48;;;;;;;13.32;2.50;;;;;;;19.80;25.05;101441.78;16139458;19;129566;-59
2022/04/18 16:35:51;;;;;;;25.40;10.45;;;;;;;19.77;25.05;101431.16;16155599;19;130008;-58
2022/04/18 16:46:54;;;;;;;27.40;11.30;;;;;;;19.76;25.57;101418.34;16144854;19;130700;-59
2022/04/18 16:52:16;;;;;;;25.90;11.40;;;;;;;19.78;25.21;101425.34;16139827;19;129297;-59
2022/04/18 16:57:38;;;;;;;28.27;12.00;;;;;;;19.76;25.40;101421.13;16171996;19;130553;-58
2022/04/18 17:02:59;;;;;;;21.85;10.10;;;;;;;19.75;25.34;101425.84;16192957;19;129577;-59
2022/04/18 17:08:21;;;;;;;22.20;9.07;;;;;;;19.74;25.61;101423.28;16194144;19;129151;-59
2022/04/18 17:13:45;;;;;;;22.77;10.98;;;;;;;19.73;25.59;101425.25;16184073;19;130639;-59
2022/04/18 17:19:07;;;;;;;21.70;10.13;;;;;;;19.73;25.88;101429.94;16210788;19;129547;-59
2022/04/18 17:24:28;;;;;;;21.10;10.00;;;;;;;19.73;26.11;101428.00;16215376;19;129230;-59
2022/04/18 17:29:50;;;;;;;17.17;8.57;;;;;;;19.74;26.19;101418.59;16210227;19;128875;-59
2022/04/18 17:35:12;;;;;;;21.00;9.55;;;;;;;19.77;26.35;101417.25;16198428;19;129108;-59
2022/04/18 17:40:33;;;;;;;17.65;9.00;;;;;;;19.77;26.22;101411.72;16195266;19;128847;-59
2022/04/18 17:45:56;;;;;;;18.50;9.95;;;;;;;19.77;26.60;101412.53;16198027;19;129087;-59
2022/04/18 17:51:17;;;;;;;19.35;11.00;;;;;;;19.76;26.96;101418.34;16141519;19;129657;-54
2022/04/18 17:56:39;;;;;;;19.38;11.02;;;;;;;19.78;27.04;101427.28;16135051;19;130228;-58
2022/04/18 18:02:01;;;;;;;19.90;10.40;;;;;;;19.77;27.03;101417.25;16124626;19;130042;-58
2022/04/18 18:07:23;;;;;;;20.45;10.20;;;;;;;19.79;26.90;101431.75;16135108;19;130448;-58
2022/04/18 18:12:44;;;;;;;16.88;8.55;;;;;;;19.76;26.99;101432.22;16126695;19;129192;-59
2022/04/18 18:18:07;;;;;;;17.02;8.38;;;;;;;19.76;27.09;101433.06;16128513;19;129495;-63
2022/04/18 18:23:29;;;;;;;13.75;7.55;;;;;;;19.78;27.60;101428.13;16135653;19;130151;-60
2022/04/18 18:28:55;;;;;;;14.97;7.17;;;;;;;19.90;27.40;101436.44;16129663;19;129125;-60
2022/04/18 18:34:17;;;;;;;19.63;6.60;;;;;;;20.11;27.39;101423.03;16127585;19;130209;-60
2022/04/18 18:39:39;;;;;;;19.60;5.80;;;;;;;20.39;27.25;101430.56;16124711;19;130048;-58
2022/04/18 18:45:00;;;;;;;19.58;5.70;;;;;;;20.64;27.35;101420.25;16131944;19;130303;-58
2022/04/18 18:56:02;;;;;;;15.75;4.60;;;;;;;20.94;27.77;101438.63;16128387;19;130626;-56
2022/04/18 19:01:25;;;;;;;10.43;3.97;;;;;;;21.08;27.67;101440.00;16127531;19;129513;-57
2022/04/18 19:06:47;;;;;;;12.35;3.80;;;;;;;21.24;27.94;101445.84;16133892;19;129414;-58
2022/04/18 19:12:09;;;;;;;10.95;3.40;;;;;;;21.35;28.10;101458.81;16132416;19;128978;-58
2022/04/18 19:28:56;;;;;;;9.07;2.80;;;;;;;21.31;28.44;101452.06;16130884;19;129769;-57
2022/04/18 19:34:20;;;;;;;8.45;3.03;;;;;;;21.22;28.42;101448.88;16131969;19;130915;-58
2022/04/18 19:39:41;;;;;;;10.27;2.45;;;;;;;21.15;28.59;101449.03;16131142;19;129321;-56
2022/04/18 19:45:03;;;;;;;9.68;2.45;;;;;;;21.06;29.19;101451.38;16127709;19;129296;-59
2022/04/18 19:50:25;;;;;;;6.38;1.92;;;;;;;20.98;29.20;101446.22;16134453;19;130086;-57
2022/04/18 19:55:47;;;;;;;5.35;1.85;;;;;;;20.94;29.01;101444.19;16134583;19;131067;-58
2022/04/18 20:01:09;;;;;;;10.10;2.58;;;;;;;20.87;29.20;101450.75;16139586;19;129954;-59
2022/04/18 20:06:31;;;;;;;4.45;2.00;;;;;;;20.80;29.60;101449.22;16146238;19;130316;-59
2022/04/18 20:11:53;;;;;;;12.80;2.00;;;;;;;20.78;29.21;101443.03;16138122;19;130671;-58
2022/04/18 20:17:14;;;;;;;15.10;2.10;;;;;;;20.78;29.38;101443.03;16140063;19;129732;-59
2022/04/18 20:22:36;;;;;;;11.15;2.35;;;;;;;20.78;29.61;101449.47;16139489;19;129734;-59
2022/04/18 20:27:58;;;;;;;4.30;1.70;;;;;;;20.81;29.09;101448.94;16138301;19;129938;-59
2022/04/18 20:33:20;;;;;;;4.32;1.42;;;;;;;20.86;29.52;101448.22;16137293;19;129536;-59
2022/04/18 20:38:42;;;;;;;7.53;2.15;;;;;;;20.90;29.18;101438.28;16139139;19;129592;-59
2022/04/18 20:44:04;;;;;;;6.30;2.00;;;;;;;20.89;29.24;101434.66;16137162;19;129393;-59
2022/04/18 20:49:26;;;;;;;2.10;1.20;;;;;;;20.85;29.26;101433.47;16139459;19;129049;-58
2022/04/18 21:00:27;;;;;;;6.80;1.20;;;;;;;20.73;29.29;101429.88;16140184;19;129595;-59
2022/04/18 21:05:50;;;;;;;2.42;1.00;;;;;;;20.67;29.41;101430.88;16138018;19;129576;-58
2022/04/18 21:11:12;;;;;;;3.85;1.10;;;;;;;20.59;29.20;101430.16;16135036;19;129475;-58
2022/04/18 21:16:34;;;;;;;4.97;0.88;;;;;;;20.55;29.49;101439.25;16134568;19;129221;-58
2022/04/18 21:21:56;;;;;;;3.97;0.80;;;;;;;20.48;29.27;101436.59;16140894;19;129790;-59
2022/04/18 21:27:18;;;;;;;3.65;1.23;;;;;;;20.43;29.57;101448.47;16139917;19;130558;-59
2022/04/18 21:32:42;;;;;;;1.42;0.80;;;;;;;20.38;29.47;101441.94;16139668;19;129120;-59
2022/04/18 21:38:04;;;;;;;3.00;0.90;;;;;;;20.34;29.48;101443.53;16138857;19;129219;-59
2022/04/18 21:43:26;;;;;;;2.80;0.70;;;;;;;20.27;29.78;101438.97;16138410;19;129472;-58
2022/04/18 21:48:48;;;;;;;1.98;0.80;;;;;;;20.23;29.73;101436.94;16136765;19;130533;-59
2022/04/18 21:54:17;;;;;;;2.65;0.85;;;;;;;20.19;29.54;101436.53;16135305;19;129893;-59
2022/04/18 21:59:39;;;;;;;2.40;0.93;;;;;;;20.16;29.97;101437.06;16136780;19;129738;-59
2022/04/18 22:05:01;;;;;;;0.98;0.70;;;;;;;20.16;29.93;101437.06;16136292;19;130646;-59
2022/04/18 22:10:23;;;;;;;1.23;0.50;;;;;;;20.12;29.52;101444.19;16136938;19;129779;-59
2022/04/18 22:15:45;;;;;;;0.70;0.50;;;;;;;20.12;29.69;101446.97;16131485;19;129454;-59
2022/04/18 22:26:47;;;;;;;0.52;0.40;;;;;;;20.06;29.91;101443.22;16136943;19;129142;-59
2022/04/18 22:32:09;;;;;;;1.30;0.90;;;;;;;20.04;29.51;101428.72;16133175;19;129454;-59
2022/04/18 22:37:32;;;;;;;0.95;0.60;;;;;;;20.03;29.48;101428.97;16136468;19;129006;-59
2022/04/18 22:42:54;;;;;;;1.13;0.50;;;;;;;19.99;29.71;101415.56;16135959;19;129520;-59
2022/04/18 22:48:15;;;;;;;1.20;0.80;;;;;;;19.97;29.93;101420.50;16133179;19;130140;-59
2022/04/18 22:53:37;;;;;;;1.30;0.70;;;;;;;19.95;29.91;101419.88;16131809;19;130166;-59
2022/04/18 22:58:59;;;;;;;1.08;0.40;;;;;;;19.94;29.68;101420.97;16132186;19;130575;-58
2022/04/18 23:04:21;;;;;;;1.08;0.73;;;;;;;19.90;29.47;101410.59;16133900;19;129318;-58
2022/04/18 23:09:42;;;;;;;0.52;0.45;;;;;;;19.87;29.56;101406.38;16130764;19;129038;-58
2022/04/18 23:15:05;;;;;;;1.58;0.50;;;;;;;19.87;29.55;101400.84;16126623;19;129464;-58
2022/04/18 23:20:27;;;;;;;0.82;0.60;;;;;;;19.83;29.78;101403.25;16127486;19;130478;-59
2022/04/18 23:25:49;;;;;;;0.80;0.50;;;;;;;19.82;29.70;101398.78;16131147;19;129435;-59
2022/04/18 23:31:10;;;;;;;0.90;0.57;;;;;;;19.81;29.69;101396.28;16146289;19;129309;-59
2022/04/18 23:36:32;;;;;;;1.23;0.60;;;;;;;19.79;29.84;101395.66;16144200;19;129705;-59
2022/04/18 23:41:54;;;;;;;3.00;0.68;;;;;;;19.76;29.56;101382.25;16147708;19;129569;-58
2022/04/18 23:47:16;;;;;;;1.05;0.50;;;;;;;19.74;29.78;101389.97;16145757;19;130108;-59
2022/04/18 23:52:37;;;;;;;0.90;0.70;;;;;;;19.72;29.67;101384.69;16140234;19;128934;-59
2022/04/18 23:57:59;;;;;;;0.60;0.50;;;;;;;19.71;29.63;101385.75;16145462;19;130742;-59
